Stephen Scott — WCW8842 — position and weather

sailwx.info

Track history (hours):
 
Tides and Currents Weather Stations Pressure Air Temp Water Temp Dewpoint Dewpoint Depression Visibility Wind Speed Wind Dir Waves Ship Positions

Stephen Scott

Owner: H A REINAUER INC, STATEN ISLAND, NY. More information available from US FCC via Universal Licensing System and Coast Guard Vessel Documentation Center.

Last reported at 2015-Aug-28 01:33 UTC. Time now 2015-Aug-28 02:12 UTC.
Position N 39°32' W 075°45'.

Length 30 m; draft 2.5 m.

Type: Towing. MMSI: 366245490.

Date/timePositionNaut miles runAvg speedWind from/ knotsBaromVisibWave heightAir tempDewpointWater temp
2015-Aug-28 01:33N 39°32' W 075°45'8 7.7
2015-Aug-28 00:33N 39°33' W 075°35'6 6.1
2015-Aug-27 23:33N 39°27' W 075°34'8 8.4
2015-Aug-27 22:33N 39°21' W 075°26'8 8.5
2015-Aug-27 21:33N 39°15' W 075°19'8 8.2
2015-Aug-27 20:33N 39°08' W 075°14'8 8.3
2015-Aug-27 19:33N 39°00' W 075°09'7 6.4
2015-Aug-27 18:31N 38°55' W 075°05'2 2.3
2015-Aug-27 17:33N 38°52' W 075°04'5 5.2
2015-Aug-27 16:33N 38°48' W 074°60'6 5.8
2015-Aug-27 15:33N 38°49' W 074°53'54 6.6
2015-Aug-27 07:24N 39°31' W 074°08'6 6.8
2015-Aug-27 06:33N 39°36' W 074°05'7 6.6
2015-Aug-27 05:33N 39°42' W 074°01'7 6.7
2015-Aug-27 04:33N 39°48' W 073°58'7 7.0
2015-Aug-27 03:32N 39°55' W 073°57'7 7.0
2015-Aug-27 02:33N 40°02' W 073°56'7 7.2
2015-Aug-27 01:33N 40°09' W 073°55'7 7.1
2015-Aug-27 00:32N 40°16' W 073°55'8 7.3
2015-Aug-26 23:30N 40°24' W 073°54'6 6.0
2015-Aug-26 22:33N 40°30' W 073°56'6 5.9
2015-Aug-26 21:33N 40°33' W 074°02'5 4.8
2015-Aug-26 20:33N 40°38' W 074°03'2 1.6
2015-Aug-26 19:33N 40°40' W 074°02'2 2.1
2015-Aug-26 18:33N 40°38' W 074°03'6 5.6
2015-Aug-26 17:33N 40°32' W 074°01'11 7.9
2015-Aug-26 16:10N 40°23' W 073°54'5 8.9
2015-Aug-26 15:33N 40°17' W 073°55'9 8.9
2015-Aug-26 14:33N 40°09' W 073°57'1 1.2
2015-Aug-26 13:33N 40°07' W 073°57'0 0.1
2015-Aug-26 12:24N 40°07' W 073°57'0 0.4
2015-Aug-26 11:25N 40°07' W 073°57'0 0.2
2015-Aug-26 10:29N 40°07' W 073°57'6 6.4
2015-Aug-26 09:33N 40°13' W 073°56'10 8.3
2015-Aug-26 08:19N 40°23' W 073°54'6 7.7
2015-Aug-26 07:31N 40°29' W 073°56'6 6.7
2015-Aug-26 06:33N 40°34' W 074°02'7 6.7
2015-Aug-26 05:33N 40°41' W 074°02'1 0.8
2015-Aug-26 04:33N 40°40' W 074°01'0 0.0
2015-Aug-26 03:33N 40°40' W 074°01'0 0.0
2015-Aug-26 02:33N 40°40' W 074°01'0 0.0
2015-Aug-26 01:33N 40°40' W 074°01'0 0.0
2015-Aug-26 00:33N 40°40' W 074°01'4 4.4
2015-Aug-25 23:33N 40°39' W 074°07'9 6.4
2015-Aug-25 22:09N 40°33' W 074°15'0 0.2
2015-Aug-25 21:33N 40°33' W 074°15'7 6.5
2015-Aug-25 20:33N 40°39' W 074°11'8 7.9
2015-Aug-25 19:33N 40°40' W 074°01'2 2.4
2015-Aug-25 18:34N 40°39' W 074°04'3 2.9
2015-Aug-25 17:31N 40°38' W 074°08'3 3.3
2015-Aug-25 16:34N 40°38' W 074°12'2 2.4
2015-Aug-25 15:33N 40°36' W 074°12'0 0.0
2015-Aug-25 14:32N 40°36' W 074°12'0 0.0
2015-Aug-25 13:33N 40°36' W 074°12'0 0.0
2015-Aug-25 12:33N 40°36' W 074°12'0 0.0
2015-Aug-25 11:33N 40°36' W 074°12'2 1.8
2015-Aug-25 10:34N 40°38' W 074°12'0 0.4
2015-Aug-25 09:33N 40°38' W 074°12'2 2.2
2015-Aug-25 08:33N 40°36' W 074°12'0 0.0
2015-Aug-25 07:33N 40°36' W 074°12'0 0.0
2015-Aug-25 06:33N 40°36' W 074°12'0 0.0
2015-Aug-25 05:33N 40°36' W 074°12'0 0.0
2015-Aug-25 04:33N 40°36' W 074°12'0 0.0
2015-Aug-25 03:33N 40°36' W 074°12'0 0.0
2015-Aug-25 02:33N 40°36' W 074°12'0 0.0
2015-Aug-25 01:33N 40°36' W 074°12'0 0.0
2015-Aug-25 00:33N 40°36' W 074°12'0 0.0
2015-Aug-24 23:33N 40°36' W 074°12'0 0.0
2015-Aug-24 22:33N 40°36' W 074°12'0 0.0
2015-Aug-24 21:33N 40°36' W 074°12'0 0.0
2015-Aug-24 20:32N 40°36' W 074°12'0 0.0
2015-Aug-24 19:32N 40°36' W 074°12'0 0.0
2015-Aug-24 18:32N 40°36' W 074°12'2 2.2
2015-Aug-24 17:33N 40°38' W 074°12'0 0.4
2015-Aug-24 16:33N 40°38' W 074°12'2 1.8
2015-Aug-24 15:33N 40°36' W 074°12'0 0.0
2015-Aug-24 14:32N 40°36' W 074°12'0 0.0
2015-Aug-24 13:33N 40°36' W 074°12'0 0.0
2015-Aug-24 12:33N 40°36' W 074°12'0 0.0
2015-Aug-24 11:33N 40°36' W 074°12'0 0.0
2015-Aug-24 10:33N 40°36' W 074°12'0 0.0
2015-Aug-24 09:33N 40°36' W 074°12'0 0.0
2015-Aug-24 08:33N 40°36' W 074°12'0 0.0
2015-Aug-24 07:33N 40°36' W 074°12'0 0.0
2015-Aug-24 06:32N 40°36' W 074°12'0 0.0
2015-Aug-24 05:33N 40°36' W 074°12'2 1.8
2015-Aug-24 04:33N 40°38' W 074°12'4 3.6
2015-Aug-24 03:33N 40°39' W 074°08'0 0.1
2015-Aug-24 02:33N 40°38' W 074°08'0 0.0
2015-Aug-24 01:33N 40°38' W 074°08'0 0.0
2015-Aug-24 00:33N 40°38' W 074°08'0 0.0
2015-Aug-23 23:33N 40°38' W 074°08'0 0.0
2015-Aug-23 22:33N 40°38' W 074°08'0 0.0
2015-Aug-23 21:33N 40°38' W 074°08'0 0.0
2015-Aug-23 20:33N 40°38' W 074°08'0 0.0
2015-Aug-23 19:33N 40°38' W 074°08'0 0.0
2015-Aug-23 18:33N 40°38' W 074°08'0 0.0
2015-Aug-23 17:33N 40°38' W 074°08'0 0.0
2015-Aug-23 16:33N 40°38' W 074°08'0 0.0
2015-Aug-23 15:33N 40°38' W 074°08'0 0.0
2015-Aug-23 14:33N 40°38' W 074°08'0 0.0
2015-Aug-23 13:33N 40°38' W 074°08'0 0.0
2015-Aug-23 12:33N 40°38' W 074°08'0 0.0
2015-Aug-23 11:33N 40°38' W 074°08'0 0.0
2015-Aug-23 10:34N 40°38' W 074°08'0 0.0
2015-Aug-23 09:33N 40°38' W 074°08'0 0.0
2015-Aug-23 08:33N 40°38' W 074°08'0 0.0
2015-Aug-23 07:33N 40°38' W 074°08'0 0.0
2015-Aug-23 06:33N 40°38' W 074°08'0 0.0
2015-Aug-23 05:33N 40°38' W 074°08'0 0.0
2015-Aug-23 04:33N 40°38' W 074°08'0 0.0
2015-Aug-23 03:33N 40°38' W 074°08'0 0.0
2015-Aug-23 02:33N 40°38' W 074°08'0 0.0
2015-Aug-23 01:33N 40°38' W 074°08'0 0.0
2015-Aug-23 00:33N 40°38' W 074°08'0 0.0
2015-Aug-22 23:33N 40°38' W 074°08'0 0.0
2015-Aug-22 22:33N 40°38' W 074°08'0 0.0
2015-Aug-22 21:33N 40°38' W 074°08'0 0.0
2015-Aug-22 20:33N 40°38' W 074°08'0 0.0
2015-Aug-22 19:33N 40°38' W 074°08'0 0.0
2015-Aug-22 18:33N 40°38' W 074°08'0 0.0
2015-Aug-22 17:33N 40°38' W 074°08'1 1.3
2015-Aug-22 16:33N 40°38' W 074°09'0 0.1
2015-Aug-22 15:33N 40°38' W 074°09'1 1.3
2015-Aug-22 14:33N 40°38' W 074°08'4 4.0
2015-Aug-22 13:33N 40°42' W 074°07'6 5.8
2015-Aug-22 12:33N 40°38' W 074°12'2 2.1
2015-Aug-22 11:33N 40°36' W 074°12'0 0.0
2015-Aug-22 10:33N 40°36' W 074°12'0 0.0
2015-Aug-22 09:34N 40°36' W 074°12'0 0.0
2015-Aug-22 08:33N 40°36' W 074°12'0 0.0
2015-Aug-22 07:33N 40°36' W 074°12'0 0.0
2015-Aug-22 06:33N 40°36' W 074°12'7 7.3
2015-Aug-22 05:34N 40°42' W 074°07'3 3.0
2015-Aug-22 04:33N 40°39' W 074°09'1 1.1
2015-Aug-22 03:33N 40°38' W 074°08'0 0.0
2015-Aug-22 02:33N 40°38' W 074°08'5 5.4
2015-Aug-22 01:33N 40°40' W 074°01'0 0.2
2015-Aug-22 00:34N 40°40' W 074°01'3 2.6
2015-Aug-21 23:34N 40°39' W 074°04'3 2.5
2015-Aug-21 22:33N 40°40' W 074°01'0 0.0
2015-Aug-21 21:33N 40°40' W 074°01'0 0.0
2015-Aug-21 20:33N 40°40' W 074°01'0 0.0
2015-Aug-21 19:34N 40°40' W 074°01'0 0.0
2015-Aug-21 18:33N 40°40' W 074°01'2 1.6
2015-Aug-21 17:33N 40°39' W 074°03'0 0.0
2015-Aug-21 16:33N 40°39' W 074°03'0 0.0
2015-Aug-21 15:33N 40°39' W 074°03'0 0.0
2015-Aug-21 14:33N 40°39' W 074°03'0 0.0
2015-Aug-21 13:33N 40°39' W 074°03'0 0.0
2015-Aug-21 12:33N 40°39' W 074°03'0 0.0
2015-Aug-21 11:33N 40°39' W 074°03'4 3.9
2015-Aug-21 10:33N 40°38' W 074°08'0 0.0
2015-Aug-21 09:33N 40°38' W 074°08'0 0.0
2015-Aug-21 08:33N 40°38' W 074°08'0 0.0
2015-Aug-21 07:33N 40°38' W 074°08'0 0.0
2015-Aug-21 06:33N 40°38' W 074°08'0 0.0
2015-Aug-21 05:33N 40°38' W 074°08'0 0.0
2015-Aug-21 04:33N 40°38' W 074°08'0 0.0
2015-Aug-21 03:33N 40°38' W 074°08'0 0.0
2015-Aug-21 02:33N 40°38' W 074°08'0 0.0
2015-Aug-21 01:33N 40°38' W 074°08'0 0.0
2015-Aug-21 00:33N 40°38' W 074°08'0 0.1
2015-Aug-20 23:33N 40°39' W 074°08'0 0.1
2015-Aug-20 22:33N 40°38' W 074°08'0 0.0
2015-Aug-20 21:33N 40°38' W 074°08'0 0.0
2015-Aug-20 20:33N 40°38' W 074°08'0 0.0
2015-Aug-20 19:33N 40°38' W 074°08'0 0.0
2015-Aug-20 18:33N 40°38' W 074°08'0 0.0
2015-Aug-20 17:33N 40°38' W 074°08'1 1.4
2015-Aug-20 16:33N 40°38' W 074°10'0 0.0
2015-Aug-20 15:33N 40°38' W 074°10'7 6.7
2015-Aug-20 14:34N 40°40' W 074°01'0 0.3
2015-Aug-20 13:33N 40°40' W 074°01'0 0.0
2015-Aug-20 12:33N 40°40' W 074°01'0 0.2
2015-Aug-20 11:33N 40°40' W 074°01'1 0.7
2015-Aug-20 10:33N 40°40' W 074°02'5 4.9
2015-Aug-20 09:33N 40°38' W 074°08'0 0.0
2015-Aug-20 08:33N 40°38' W 074°08'0 0.0
2015-Aug-20 07:33N 40°38' W 074°08'0 0.0
2015-Aug-20 06:33N 40°38' W 074°08'0 0.0
2015-Aug-20 05:33N 40°38' W 074°08'0 0.0
2015-Aug-20 04:33N 40°38' W 074°08'0 0.0
2015-Aug-20 03:33N 40°38' W 074°08'0 0.0
2015-Aug-20 02:33N 40°38' W 074°08'0 0.0
2015-Aug-20 01:33N 40°38' W 074°08'0 0.0
2015-Aug-20 00:33N 40°38' W 074°08'0 0.0
2015-Aug-19 23:33N 40°38' W 074°08'1 1.1
2015-Aug-19 22:33N 40°39' W 074°06'0 0.2
2015-Aug-19 21:33N 40°39' W 074°07'0 0.4
2015-Aug-19 20:33N 40°39' W 074°06'4 4.0
2015-Aug-19 19:33N 40°40' W 074°01'0 0.0
2015-Aug-19 18:33N 40°40' W 074°01'0 0.0
2015-Aug-19 17:33N 40°40' W 074°01'0 0.0
2015-Aug-19 16:33N 40°40' W 074°01'0 0.0
2015-Aug-19 15:33N 40°40' W 074°01'0 0.0
2015-Aug-19 14:33N 40°40' W 074°01'0 0.0
2015-Aug-19 13:33N 40°40' W 074°01'0 0.0
2015-Aug-19 12:33N 40°40' W 074°01'0 0.0
2015-Aug-19 11:33N 40°40' W 074°01'0 0.3
2015-Aug-19 10:33N 40°40' W 074°01'0 0.3
2015-Aug-19 09:33N 40°40' W 074°01'0 0.0
2015-Aug-19 08:33N 40°40' W 074°01'0 0.0
2015-Aug-19 07:33N 40°40' W 074°01'0 0.0
2015-Aug-19 06:33N 40°40' W 074°01'0 0.0
2015-Aug-19 05:33N 40°40' W 074°01'4 4.3
2015-Aug-19 04:32N 40°39' W 074°07'1 0.9
2015-Aug-19 03:33N 40°39' W 074°08'0 0.1
2015-Aug-19 02:33N 40°38' W 074°08'0 0.0
2015-Aug-19 01:33N 40°38' W 074°08'0 0.0
2015-Aug-19 00:33N 40°38' W 074°08'0 0.0
2015-Aug-18 23:33N 40°38' W 074°08'0 0.0
2015-Aug-18 22:33N 40°38' W 074°08'0 0.0
2015-Aug-18 21:33N 40°38' W 074°08'0 0.0
2015-Aug-18 20:33N 40°38' W 074°08'0 0.0
2015-Aug-18 19:33N 40°38' W 074°08'0 0.0
2015-Aug-18 18:33N 40°38' W 074°08'0 0.0
2015-Aug-18 17:33N 40°38' W 074°08'0 0.0
2015-Aug-18 16:33N 40°38' W 074°08'0 0.0
2015-Aug-18 15:33N 40°38' W 074°08'0 0.0
2015-Aug-18 14:33N 40°38' W 074°08'0 0.0
2015-Aug-18 13:33N 40°38' W 074°08'0 0.0
2015-Aug-18 12:33N 40°38' W 074°08'0 0.0
2015-Aug-18 11:33N 40°38' W 074°08'0 0.0
2015-Aug-18 10:33N 40°38' W 074°08'0 0.0
2015-Aug-18 09:33N 40°38' W 074°08'0 0.0
2015-Aug-18 08:33N 40°38' W 074°08'0 0.0
2015-Aug-18 07:33N 40°38' W 074°08'0 0.0
2015-Aug-18 06:33N 40°38' W 074°08'0 0.0
2015-Aug-18 05:33N 40°38' W 074°08'0 0.0
2015-Aug-18 04:33N 40°38' W 074°08'0 0.0
2015-Aug-18 04:11N 40°38' W 074°08'0 0.0
2015-Aug-18 04:08N 40°38' W 074°08'0 0.0
2015-Aug-18 03:33N 40°38' W 074°08'1 0.6
2015-Aug-18 02:33N 40°39' W 074°07'  
Track history (hours):
 
Tides and Currents Weather Stations Pressure Air Temp Water Temp Dewpoint Dewpoint Depression Visibility Wind Speed Wind Dir Waves Ship Positions

Stephen Scott

Owner: H A REINAUER INC, STATEN ISLAND, NY. More information available from US FCC via Universal Licensing System and Coast Guard Vessel Documentation Center.

Last reported at 2015-Aug-28 01:33 UTC. Time now 2015-Aug-28 02:12 UTC.
Position N 39°32' W 075°45'.

Length 30 m; draft 2.5 m.

Type: Towing. MMSI: 366245490.

Date/timePositionNaut miles runAvg speedWind from/ knotsBaromVisibWave heightAir tempDewpointWater temp
2015-Aug-28 01:33N 39°32' W 075°45'8 7.7
2015-Aug-28 00:33N 39°33' W 075°35'6 6.1
2015-Aug-27 23:33N 39°27' W 075°34'8 8.4
2015-Aug-27 22:33N 39°21' W 075°26'8 8.5
2015-Aug-27 21:33N 39°15' W 075°19'8 8.2
2015-Aug-27 20:33N 39°08' W 075°14'8 8.3
2015-Aug-27 19:33N 39°00' W 075°09'7 6.4
2015-Aug-27 18:31N 38°55' W 075°05'2 2.3
2015-Aug-27 17:33N 38°52' W 075°04'5 5.2
2015-Aug-27 16:33N 38°48' W 074°60'6 5.8
2015-Aug-27 15:33N 38°49' W 074°53'54 6.6
2015-Aug-27 07:24N 39°31' W 074°08'6 6.8
2015-Aug-27 06:33N 39°36' W 074°05'7 6.6
2015-Aug-27 05:33N 39°42' W 074°01'7 6.7
2015-Aug-27 04:33N 39°48' W 073°58'7 7.0
2015-Aug-27 03:32N 39°55' W 073°57'7 7.0
2015-Aug-27 02:33N 40°02' W 073°56'7 7.2
2015-Aug-27 01:33N 40°09' W 073°55'7 7.1
2015-Aug-27 00:32N 40°16' W 073°55'8 7.3
2015-Aug-26 23:30N 40°24' W 073°54'6 6.0
2015-Aug-26 22:33N 40°30' W 073°56'6 5.9
2015-Aug-26 21:33N 40°33' W 074°02'5 4.8
2015-Aug-26 20:33N 40°38' W 074°03'2 1.6
2015-Aug-26 19:33N 40°40' W 074°02'2 2.1
2015-Aug-26 18:33N 40°38' W 074°03'6 5.6
2015-Aug-26 17:33N 40°32' W 074°01'11 7.9
2015-Aug-26 16:10N 40°23' W 073°54'5 8.9
2015-Aug-26 15:33N 40°17' W 073°55'9 8.9
2015-Aug-26 14:33N 40°09' W 073°57'1 1.2
2015-Aug-26 13:33N 40°07' W 073°57'0 0.1
2015-Aug-26 12:24N 40°07' W 073°57'0 0.4
2015-Aug-26 11:25N 40°07' W 073°57'0 0.2
2015-Aug-26 10:29N 40°07' W 073°57'6 6.4
2015-Aug-26 09:33N 40°13' W 073°56'10 8.3
2015-Aug-26 08:19N 40°23' W 073°54'6 7.7
2015-Aug-26 07:31N 40°29' W 073°56'6 6.7
2015-Aug-26 06:33N 40°34' W 074°02'7 6.7
2015-Aug-26 05:33N 40°41' W 074°02'1 0.8
2015-Aug-26 04:33N 40°40' W 074°01'0 0.0
2015-Aug-26 03:33N 40°40' W 074°01'0 0.0
2015-Aug-26 02:33N 40°40' W 074°01'0 0.0
2015-Aug-26 01:33N 40°40' W 074°01'0 0.0
2015-Aug-26 00:33N 40°40' W 074°01'4 4.4
2015-Aug-25 23:33N 40°39' W 074°07'9 6.4
2015-Aug-25 22:09N 40°33' W 074°15'0 0.2
2015-Aug-25 21:33N 40°33' W 074°15'7 6.5
2015-Aug-25 20:33N 40°39' W 074°11'8 7.9
2015-Aug-25 19:33N 40°40' W 074°01'2 2.4
2015-Aug-25 18:34N 40°39' W 074°04'3 2.9
2015-Aug-25 17:31N 40°38' W 074°08'3 3.3
2015-Aug-25 16:34N 40°38' W 074°12'2 2.4
2015-Aug-25 15:33N 40°36' W 074°12'0 0.0
2015-Aug-25 14:32N 40°36' W 074°12'0 0.0
2015-Aug-25 13:33N 40°36' W 074°12'0 0.0
2015-Aug-25 12:33N 40°36' W 074°12'0 0.0
2015-Aug-25 11:33N 40°36' W 074°12'2 1.8
2015-Aug-25 10:34N 40°38' W 074°12'0 0.4
2015-Aug-25 09:33N 40°38' W 074°12'2 2.2
2015-Aug-25 08:33N 40°36' W 074°12'0 0.0
2015-Aug-25 07:33N 40°36' W 074°12'0 0.0
2015-Aug-25 06:33N 40°36' W 074°12'0 0.0
2015-Aug-25 05:33N 40°36' W 074°12'0 0.0
2015-Aug-25 04:33N 40°36' W 074°12'0 0.0
2015-Aug-25 03:33N 40°36' W 074°12'0 0.0
2015-Aug-25 02:33N 40°36' W 074°12'0 0.0
2015-Aug-25 01:33N 40°36' W 074°12'0 0.0
2015-Aug-25 00:33N 40°36' W 074°12'0 0.0
2015-Aug-24 23:33N 40°36' W 074°12'0 0.0
2015-Aug-24 22:33N 40°36' W 074°12'0 0.0
2015-Aug-24 21:33N 40°36' W 074°12'0 0.0
2015-Aug-24 20:32N 40°36' W 074°12'0 0.0
2015-Aug-24 19:32N 40°36' W 074°12'0 0.0
2015-Aug-24 18:32N 40°36' W 074°12'2 2.2
2015-Aug-24 17:33N 40°38' W 074°12'0 0.4
2015-Aug-24 16:33N 40°38' W 074°12'2 1.8
2015-Aug-24 15:33N 40°36' W 074°12'0 0.0
2015-Aug-24 14:32N 40°36' W 074°12'0 0.0
2015-Aug-24 13:33N 40°36' W 074°12'0 0.0
2015-Aug-24 12:33N 40°36' W 074°12'0 0.0
2015-Aug-24 11:33N 40°36' W 074°12'0 0.0
2015-Aug-24 10:33N 40°36' W 074°12'0 0.0
2015-Aug-24 09:33N 40°36' W 074°12'0 0.0
2015-Aug-24 08:33N 40°36' W 074°12'0 0.0
2015-Aug-24 07:33N 40°36' W 074°12'0 0.0
2015-Aug-24 06:32N 40°36' W 074°12'0 0.0
2015-Aug-24 05:33N 40°36' W 074°12'2 1.8
2015-Aug-24 04:33N 40°38' W 074°12'4 3.6
2015-Aug-24 03:33N 40°39' W 074°08'0 0.1
2015-Aug-24 02:33N 40°38' W 074°08'0 0.0
2015-Aug-24 01:33N 40°38' W 074°08'0 0.0
2015-Aug-24 00:33N 40°38' W 074°08'0 0.0
2015-Aug-23 23:33N 40°38' W 074°08'0 0.0
2015-Aug-23 22:33N 40°38' W 074°08'0 0.0
2015-Aug-23 21:33N 40°38' W 074°08'0 0.0
2015-Aug-23 20:33N 40°38' W 074°08'0 0.0
2015-Aug-23 19:33N 40°38' W 074°08'0 0.0
2015-Aug-23 18:33N 40°38' W 074°08'0 0.0
2015-Aug-23 17:33N 40°38' W 074°08'0 0.0
2015-Aug-23 16:33N 40°38' W 074°08'0 0.0
2015-Aug-23 15:33N 40°38' W 074°08'0 0.0
2015-Aug-23 14:33N 40°38' W 074°08'0 0.0
2015-Aug-23 13:33N 40°38' W 074°08'0 0.0
2015-Aug-23 12:33N 40°38' W 074°08'0 0.0
2015-Aug-23 11:33N 40°38' W 074°08'0 0.0
2015-Aug-23 10:34N 40°38' W 074°08'0 0.0
2015-Aug-23 09:33N 40°38' W 074°08'0 0.0
2015-Aug-23 08:33N 40°38' W 074°08'0 0.0
2015-Aug-23 07:33N 40°38' W 074°08'0 0.0
2015-Aug-23 06:33N 40°38' W 074°08'0 0.0
2015-Aug-23 05:33N 40°38' W 074°08'0 0.0
2015-Aug-23 04:33N 40°38' W 074°08'0 0.0
2015-Aug-23 03:33N 40°38' W 074°08'0 0.0
2015-Aug-23 02:33N 40°38' W 074°08'0 0.0
2015-Aug-23 01:33N 40°38' W 074°08'0 0.0
2015-Aug-23 00:33N 40°38' W 074°08'0 0.0
2015-Aug-22 23:33N 40°38' W 074°08'0 0.0
2015-Aug-22 22:33N 40°38' W 074°08'0 0.0
2015-Aug-22 21:33N 40°38' W 074°08'0 0.0
2015-Aug-22 20:33N 40°38' W 074°08'0 0.0
2015-Aug-22 19:33N 40°38' W 074°08'0 0.0
2015-Aug-22 18:33N 40°38' W 074°08'0 0.0
2015-Aug-22 17:33N 40°38' W 074°08'1 1.3
2015-Aug-22 16:33N 40°38' W 074°09'0 0.1
2015-Aug-22 15:33N 40°38' W 074°09'1 1.3
2015-Aug-22 14:33N 40°38' W 074°08'4 4.0
2015-Aug-22 13:33N 40°42' W 074°07'6 5.8
2015-Aug-22 12:33N 40°38' W 074°12'2 2.1
2015-Aug-22 11:33N 40°36' W 074°12'0 0.0
2015-Aug-22 10:33N 40°36' W 074°12'0 0.0
2015-Aug-22 09:34N 40°36' W 074°12'0 0.0
2015-Aug-22 08:33N 40°36' W 074°12'0 0.0
2015-Aug-22 07:33N 40°36' W 074°12'0 0.0
2015-Aug-22 06:33N 40°36' W 074°12'7 7.3
2015-Aug-22 05:34N 40°42' W 074°07'3 3.0
2015-Aug-22 04:33N 40°39' W 074°09'1 1.1
2015-Aug-22 03:33N 40°38' W 074°08'0 0.0
2015-Aug-22 02:33N 40°38' W 074°08'5 5.4
2015-Aug-22 01:33N 40°40' W 074°01'0 0.2
2015-Aug-22 00:34N 40°40' W 074°01'3 2.6
2015-Aug-21 23:34N 40°39' W 074°04'3 2.5
2015-Aug-21 22:33N 40°40' W 074°01'0 0.0
2015-Aug-21 21:33N 40°40' W 074°01'0 0.0
2015-Aug-21 20:33N 40°40' W 074°01'0 0.0
2015-Aug-21 19:34N 40°40' W 074°01'0 0.0
2015-Aug-21 18:33N 40°40' W 074°01'2 1.6
2015-Aug-21 17:33N 40°39' W 074°03'0 0.0
2015-Aug-21 16:33N 40°39' W 074°03'0 0.0
2015-Aug-21 15:33N 40°39' W 074°03'0 0.0
2015-Aug-21 14:33N 40°39' W 074°03'0 0.0
2015-Aug-21 13:33N 40°39' W 074°03'0 0.0
2015-Aug-21 12:33N 40°39' W 074°03'0 0.0
2015-Aug-21 11:33N 40°39' W 074°03'4 3.9
2015-Aug-21 10:33N 40°38' W 074°08'0 0.0
2015-Aug-21 09:33N 40°38' W 074°08'0 0.0
2015-Aug-21 08:33N 40°38' W 074°08'0 0.0
2015-Aug-21 07:33N 40°38' W 074°08'0 0.0
2015-Aug-21 06:33N 40°38' W 074°08'0 0.0
2015-Aug-21 05:33N 40°38' W 074°08'0 0.0
2015-Aug-21 04:33N 40°38' W 074°08'0 0.0
2015-Aug-21 03:33N 40°38' W 074°08'0 0.0
2015-Aug-21 02:33N 40°38' W 074°08'0 0.0
2015-Aug-21 01:33N 40°38' W 074°08'0 0.0
2015-Aug-21 00:33N 40°38' W 074°08'0 0.1
2015-Aug-20 23:33N 40°39' W 074°08'0 0.1
2015-Aug-20 22:33N 40°38' W 074°08'0 0.0
2015-Aug-20 21:33N 40°38' W 074°08'0 0.0
2015-Aug-20 20:33N 40°38' W 074°08'0 0.0
2015-Aug-20 19:33N 40°38' W 074°08'0 0.0
2015-Aug-20 18:33N 40°38' W 074°08'0 0.0
2015-Aug-20 17:33N 40°38' W 074°08'1 1.4
2015-Aug-20 16:33N 40°38' W 074°10'0 0.0
2015-Aug-20 15:33N 40°38' W 074°10'7 6.7
2015-Aug-20 14:34N 40°40' W 074°01'0 0.3
2015-Aug-20 13:33N 40°40' W 074°01'0 0.0
2015-Aug-20 12:33N 40°40' W 074°01'0 0.2
2015-Aug-20 11:33N 40°40' W 074°01'1 0.7
2015-Aug-20 10:33N 40°40' W 074°02'5 4.9
2015-Aug-20 09:33N 40°38' W 074°08'0 0.0
2015-Aug-20 08:33N 40°38' W 074°08'0 0.0
2015-Aug-20 07:33N 40°38' W 074°08'0 0.0
2015-Aug-20 06:33N 40°38' W 074°08'0 0.0
2015-Aug-20 05:33N 40°38' W 074°08'0 0.0
2015-Aug-20 04:33N 40°38' W 074°08'0 0.0
2015-Aug-20 03:33N 40°38' W 074°08'0 0.0
2015-Aug-20 02:33N 40°38' W 074°08'0 0.0
2015-Aug-20 01:33N 40°38' W 074°08'0 0.0
2015-Aug-20 00:33N 40°38' W 074°08'0 0.0
2015-Aug-19 23:33N 40°38' W 074°08'1 1.1
2015-Aug-19 22:33N 40°39' W 074°06'0 0.2
2015-Aug-19 21:33N 40°39' W 074°07'0 0.4
2015-Aug-19 20:33N 40°39' W 074°06'4 4.0
2015-Aug-19 19:33N 40°40' W 074°01'0 0.0
2015-Aug-19 18:33N 40°40' W 074°01'0 0.0
2015-Aug-19 17:33N 40°40' W 074°01'0 0.0
2015-Aug-19 16:33N 40°40' W 074°01'0 0.0
2015-Aug-19 15:33N 40°40' W 074°01'0 0.0
2015-Aug-19 14:33N 40°40' W 074°01'0 0.0
2015-Aug-19 13:33N 40°40' W 074°01'0 0.0
2015-Aug-19 12:33N 40°40' W 074°01'0 0.0
2015-Aug-19 11:33N 40°40' W 074°01'0 0.3
2015-Aug-19 10:33N 40°40' W 074°01'0 0.3
2015-Aug-19 09:33N 40°40' W 074°01'0 0.0
2015-Aug-19 08:33N 40°40' W 074°01'0 0.0
2015-Aug-19 07:33N 40°40' W 074°01'0 0.0
2015-Aug-19 06:33N 40°40' W 074°01'0 0.0
2015-Aug-19 05:33N 40°40' W 074°01'4 4.3
2015-Aug-19 04:32N 40°39' W 074°07'1 0.9
2015-Aug-19 03:33N 40°39' W 074°08'0 0.1
2015-Aug-19 02:33N 40°38' W 074°08'0 0.0
2015-Aug-19 01:33N 40°38' W 074°08'0 0.0
2015-Aug-19 00:33N 40°38' W 074°08'0 0.0
2015-Aug-18 23:33N 40°38' W 074°08'0 0.0
2015-Aug-18 22:33N 40°38' W 074°08'0 0.0
2015-Aug-18 21:33N 40°38' W 074°08'0 0.0
2015-Aug-18 20:33N 40°38' W 074°08'0 0.0
2015-Aug-18 19:33N 40°38' W 074°08'0 0.0
2015-Aug-18 18:33N 40°38' W 074°08'0 0.0
2015-Aug-18 17:33N 40°38' W 074°08'0 0.0
2015-Aug-18 16:33N 40°38' W 074°08'0 0.0
2015-Aug-18 15:33N 40°38' W 074°08'0 0.0
2015-Aug-18 14:33N 40°38' W 074°08'0 0.0
2015-Aug-18 13:33N 40°38' W 074°08'0 0.0
2015-Aug-18 12:33N 40°38' W 074°08'0 0.0
2015-Aug-18 11:33N 40°38' W 074°08'0 0.0
2015-Aug-18 10:33N 40°38' W 074°08'0 0.0
2015-Aug-18 09:33N 40°38' W 074°08'0 0.0
2015-Aug-18 08:33N 40°38' W 074°08'0 0.0
2015-Aug-18 07:33N 40°38' W 074°08'0 0.0
2015-Aug-18 06:33N 40°38' W 074°08'0 0.0
2015-Aug-18 05:33N 40°38' W 074°08'0 0.0
2015-Aug-18 04:33N 40°38' W 074°08'0 0.0
2015-Aug-18 04:11N 40°38' W 074°08'0 0.0
2015-Aug-18 04:08N 40°38' W 074°08'0 0.0
2015-Aug-18 03:33N 40°38' W 074°08'1 0.6
2015-Aug-18 02:33N 40°39' W 074°07'  

Dump ship's entire track history